createdAt,value
2018-11-07T00:02:17.908Z,109.60
2018-11-07T00:04:46.174Z,118.97
2018-11-07T00:07:14.387Z,140.27
2018-11-07T00:09:42.625Z,118.63
2018-11-07T00:12:10.904Z,121.60
2018-11-07T00:14:39.420Z,128.30
2018-11-07T00:17:07.447Z,103.83
2018-11-07T00:19:35.965Z,91.83
2018-11-07T00:22:04.415Z,81.43
2018-11-07T00:24:32.123Z,78.97
2018-11-07T00:26:59.919Z,84.20
2018-11-07T00:29:27.700Z,72.37
2018-11-07T00:31:55.524Z,75.40
2018-11-07T00:34:23.232Z,76.43
2018-11-07T00:36:51.039Z,71.43
2018-11-07T00:39:18.829Z,78.90
2018-11-07T00:41:46.590Z,68.27
2018-11-07T00:44:14.351Z,68.47
2018-11-07T00:46:42.120Z,66.63
2018-11-07T00:49:09.895Z,71.43
2018-11-07T00:51:37.677Z,73.50
2018-11-07T00:54:05.483Z,70.10
2018-11-07T00:56:33.231Z,90.90
2018-11-07T00:59:00.929Z,91.33
2018-11-07T01:01:28.635Z,98.40
2018-11-07T01:03:56.393Z,74.03
2018-11-07T01:06:24.192Z,70.60
2018-11-07T01:08:51.927Z,84.90
2018-11-07T01:11:19.703Z,118.87
2018-11-07T01:13:47.395Z,92.93
2018-11-07T01:16:15.143Z,80.07
2018-11-07T01:18:42.878Z,91.90
2018-11-07T01:21:10.642Z,87.43
2018-11-07T01:23:38.391Z,86.63
2018-11-07T01:26:06.178Z,101.23
2018-11-07T01:28:33.947Z,215.73
2018-11-07T01:31:01.672Z,127.83
2018-11-07T01:33:29.399Z,89.13
2018-11-07T01:35:57.187Z,89.33
2018-11-07T01:38:24.938Z,98.47
2018-11-07T01:40:52.719Z,91.00
2018-11-07T01:43:20.528Z,86.77
2018-11-07T01:45:48.351Z,84.33
2018-11-07T01:48:16.070Z,74.80
2018-11-07T01:50:43.836Z,78.83
2018-11-07T01:53:11.579Z,96.40
2018-11-07T01:55:39.386Z,90.03
2018-11-07T01:58:07.163Z,100.00
2018-11-07T02:00:34.942Z,93.67
2018-11-07T02:03:02.679Z,105.93
2018-11-07T02:05:30.490Z,113.90
2018-11-07T02:07:58.308Z,121.87
2018-11-07T02:10:26.036Z,111.83
2018-11-07T02:12:53.840Z,117.20
2018-11-07T02:15:21.754Z,122.87
2018-11-07T02:17:50.113Z,134.00
2018-11-07T02:20:18.335Z,139.10
2018-11-07T02:22:46.072Z,140.17
2018-11-07T02:25:13.811Z,150.23
2018-11-07T02:27:41.613Z,157.10
2018-11-07T02:30:11.371Z,158.03
2018-11-07T02:32:39.151Z,153.63
2018-11-07T02:35:07.044Z,159.10
2018-11-07T02:37:34.787Z,169.07
2018-11-07T02:40:02.607Z,168.73
2018-11-07T02:42:30.400Z,177.90
2018-11-07T02:44:58.188Z,185.07
2018-11-07T02:47:25.939Z,177.93
2018-11-07T02:49:53.704Z,148.13
2018-11-07T02:52:21.524Z,147.40
2018-11-07T02:54:49.280Z,141.40
2018-11-07T02:57:17.230Z,142.40
2018-11-07T02:59:45.587Z,129.17
2018-11-07T03:02:13.932Z,126.17
2018-11-07T03:04:42.387Z,112.37
2018-11-07T03:07:10.634Z,115.93
2018-11-07T03:09:39.144Z,101.57
2018-11-07T03:12:06.955Z,93.80
2018-11-07T03:14:34.661Z,98.40
2018-11-07T03:17:02.442Z,89.97
2018-11-07T03:19:30.180Z,81.07
2018-11-07T03:21:57.880Z,75.30
2018-11-07T03:24:25.679Z,75.77
2018-11-07T03:26:53.420Z,77.43
2018-11-07T03:29:21.103Z,81.50
2018-11-07T03:31:48.887Z,74.00
2018-11-07T03:34:16.660Z,78.43
2018-11-07T03:36:44.452Z,75.10
2018-11-07T03:39:12.916Z,71.57
2018-11-07T03:41:41.195Z,70.43
2018-11-07T03:44:09.907Z,62.60
2018-11-07T03:46:38.333Z,67.30
2018-11-07T03:49:06.577Z,65.53
2018-11-07T03:51:34.887Z,66.47
2018-11-07T03:54:03.274Z,67.07
2018-11-07T03:56:31.678Z,56.73
2018-11-07T03:58:59.944Z,60.70
2018-11-07T04:01:27.687Z,59.63
2018-11-07T04:03:55.503Z,57.70
2018-11-07T04:06:23.279Z,77.77
2018-11-07T04:08:51.016Z,79.13
2018-11-07T04:11:19.291Z,88.20
2018-11-07T04:13:47.487Z,80.70
2018-11-07T04:16:15.628Z,93.40
2018-11-07T04:18:43.890Z,86.83
2018-11-07T04:21:12.368Z,83.77
2018-11-07T04:23:40.672Z,89.10
2018-11-07T04:26:09.127Z,92.90
2018-11-07T04:28:37.383Z,106.73
2018-11-07T04:31:05.849Z,107.00
2018-11-07T04:33:34.175Z,110.43
2018-11-07T04:36:02.444Z,117.40
2018-11-07T04:38:30.702Z,142.93
2018-11-07T04:40:59.012Z,121.67
2018-11-07T04:43:27.248Z,141.60
2018-11-07T04:45:55.478Z,140.27
2018-11-07T04:48:23.639Z,142.23
2018-11-07T04:50:51.838Z,181.60
2018-11-07T04:53:19.720Z,216.53
2018-11-07T04:55:47.490Z,188.47
2018-11-07T04:58:15.264Z,157.30
2018-11-07T05:00:43.061Z,175.67
2018-11-07T05:03:10.860Z,167.33
2018-11-07T05:05:38.547Z,158.80
2018-11-07T05:08:06.291Z,165.80
2018-11-07T05:10:34.063Z,146.73
2018-11-07T05:13:01.770Z,145.37
2018-11-07T05:15:29.511Z,149.47
2018-11-07T05:17:57.282Z,138.00
2018-11-07T05:20:24.989Z,144.03
2018-11-07T05:22:52.730Z,125.83
2018-11-07T05:25:20.533Z,149.10
2018-11-07T05:27:48.222Z,145.27
2018-11-07T05:30:15.969Z,141.63
2018-11-07T05:32:43.792Z,137.47
2018-11-07T05:35:11.532Z,121.87
2018-11-07T05:37:39.262Z,128.60
2018-11-07T05:40:07.097Z,115.60
2018-11-07T05:42:34.841Z,123.03
2018-11-07T05:45:02.575Z,123.97
2018-11-07T05:47:30.337Z,117.50
2018-11-07T05:49:58.107Z,105.10
2018-11-07T05:52:25.911Z,96.17
2018-11-07T05:54:53.782Z,74.77
2018-11-07T05:57:21.518Z,85.93
2018-11-07T05:59:49.287Z,74.17
2018-11-07T06:02:17.056Z,62.80
2018-11-07T06:04:44.858Z,62.83
2018-11-07T06:07:12.671Z,52.87
2018-11-07T06:09:40.472Z,54.67
2018-11-07T06:12:08.306Z,54.20
2018-11-07T06:14:36.079Z,55.43
2018-11-07T06:17:04.038Z,49.23
2018-11-07T06:19:31.825Z,48.93
2018-11-07T06:22:00.260Z,53.27
2018-11-07T06:24:28.855Z,50.70
2018-11-07T06:26:57.022Z,53.47
2018-11-07T06:29:25.600Z,50.30
2018-11-07T06:31:53.823Z,48.47
2018-11-07T06:34:22.035Z,50.53
2018-11-07T06:36:50.523Z,47.90
2018-11-07T06:39:18.610Z,41.60
2018-11-07T06:41:46.324Z,40.00
2018-11-07T06:44:14.091Z,34.43
2018-11-07T06:46:41.852Z,34.60
2018-11-07T06:49:09.611Z,40.73
2018-11-07T06:51:37.403Z,39.23
2018-11-07T06:54:05.286Z,39.43
2018-11-07T06:56:33.123Z,37.00
2018-11-07T06:59:00.827Z,31.17
2018-11-07T07:01:28.670Z,30.83
2018-11-07T07:03:56.448Z,29.87
2018-11-07T07:06:24.375Z,34.63
2018-11-07T07:08:52.278Z,35.03
2018-11-07T07:11:20.007Z,28.03
2018-11-07T07:13:47.771Z,28.47
2018-11-07T07:16:15.583Z,33.00
2018-11-07T07:18:43.364Z,39.63
2018-11-07T07:21:11.103Z,37.57
2018-11-07T07:23:38.867Z,37.70
2018-11-07T07:26:06.679Z,39.03
2018-11-07T07:28:34.416Z,32.47
2018-11-07T07:31:02.192Z,30.30
2018-11-07T07:33:29.946Z,34.83
2018-11-07T07:35:57.751Z,37.17
2018-11-07T07:38:25.564Z,39.57
2018-11-07T07:40:53.448Z,34.47
2018-11-07T07:43:21.209Z,36.10
2018-11-07T07:45:49.035Z,37.17
2018-11-07T07:48:16.838Z,34.53
2018-11-07T07:50:44.544Z,38.13
2018-11-07T07:53:12.431Z,36.63
2018-11-07T07:55:40.192Z,42.90
2018-11-07T07:58:07.974Z,35.67
2018-11-07T08:00:35.770Z,37.50
2018-11-07T08:03:03.543Z,39.00
2018-11-07T08:05:31.307Z,35.37
2018-11-07T08:07:59.276Z,36.80
2018-11-07T08:10:27.011Z,37.23
2018-11-07T08:12:54.793Z,34.53
2018-11-07T08:15:22.572Z,38.17
2018-11-07T08:17:50.306Z,37.13
2018-11-07T08:20:18.557Z,38.33
2018-11-07T08:22:47.011Z,41.07
2018-11-07T08:25:14.765Z,40.10
2018-11-07T08:27:42.600Z,40.03
2018-11-07T08:30:12.700Z,41.03
2018-11-07T08:32:40.732Z,46.10
2018-11-07T08:35:09.827Z,47.60
2018-11-07T08:37:37.727Z,46.97
2018-11-07T08:40:11.575Z,51.83
2018-11-07T08:42:39.701Z,55.83
2018-11-07T08:45:08.328Z,50.43
2018-11-07T08:47:36.042Z,42.83
2018-11-07T08:50:04.645Z,43.83
2018-11-07T08:52:32.451Z,46.10
2018-11-07T08:55:00.215Z,48.97
2018-11-07T08:57:27.979Z,43.03
2018-11-07T08:59:55.844Z,44.33
2018-11-07T09:02:23.604Z,43.40
2018-11-07T09:04:51.415Z,42.07
2018-11-07T09:07:19.183Z,43.53
2018-11-07T09:09:46.927Z,39.40
2018-11-07T09:12:14.824Z,42.03
2018-11-07T09:14:42.488Z,39.37
2018-11-07T09:17:10.251Z,38.33
2018-11-07T09:19:38.042Z,37.03
2018-11-07T09:22:06.005Z,38.20
2018-11-07T09:24:33.918Z,39.17
2018-11-07T09:27:01.697Z,35.27
2018-11-07T09:29:29.445Z,33.90
2018-11-07T09:31:57.198Z,33.07
2018-11-07T09:34:24.970Z,34.00
2018-11-07T09:36:52.729Z,31.70
2018-11-07T09:39:20.487Z,31.77
2018-11-07T09:41:48.311Z,37.07
2018-11-07T09:44:16.100Z,32.63
2018-11-07T09:46:43.888Z,30.27
2018-11-07T09:49:11.762Z,30.30
2018-11-07T09:51:39.469Z,33.07
2018-11-07T09:54:07.240Z,32.67
2018-11-07T09:56:35.062Z,27.80
2018-11-07T09:59:02.824Z,28.00
2018-11-07T10:01:30.599Z,26.27
2018-11-07T10:03:58.351Z,27.87
2018-11-07T10:06:26.106Z,25.37
2018-11-07T10:08:53.901Z,29.00
2018-11-07T10:11:21.680Z,24.73
2018-11-07T10:13:49.370Z,24.40
2018-11-07T10:16:17.139Z,25.87
2018-11-07T10:18:44.975Z,22.30
2018-11-07T10:21:12.791Z,20.80
2018-11-07T10:23:40.499Z,21.30
2018-11-07T10:26:08.394Z,18.43
2018-11-07T10:28:36.346Z,20.30
2018-11-07T10:31:04.252Z,17.57
2018-11-07T10:33:32.008Z,17.17
2018-11-07T10:35:59.775Z,16.93
2018-11-07T10:38:27.654Z,17.53
2018-11-07T10:40:55.420Z,16.77
2018-11-07T10:43:23.151Z,16.10
2018-11-07T10:45:51.102Z,17.07
2018-11-07T10:48:18.843Z,20.20
2018-11-07T10:50:46.672Z,16.00
2018-11-07T10:53:14.432Z,15.33
2018-11-07T10:55:42.251Z,17.43
2018-11-07T10:58:09.974Z,15.03
2018-11-07T11:00:43.361Z,15.40
2018-11-07T11:03:16.518Z,17.13
2018-11-07T11:05:44.322Z,15.57
2018-11-07T11:08:12.062Z,15.40
2018-11-07T11:10:39.886Z,15.90
2018-11-07T11:13:07.739Z,18.20
2018-11-07T11:15:35.443Z,15.63
2018-11-07T11:18:03.175Z,15.60
2018-11-07T11:20:30.970Z,13.70
2018-11-07T11:22:58.715Z,14.97
2018-11-07T11:25:26.451Z,11.67
2018-11-07T11:27:54.243Z,16.60
2018-11-07T11:30:21.978Z,15.20
2018-11-07T11:32:49.651Z,16.03
2018-11-07T11:35:17.541Z,15.37
2018-11-07T11:37:45.230Z,13.20
2018-11-07T11:40:14.160Z,14.90
2018-11-07T11:42:42.737Z,14.53
2018-11-07T11:45:12.245Z,14.13
2018-11-07T11:47:40.548Z,18.07
2018-11-07T11:50:11.036Z,15.63
2018-11-07T11:52:38.948Z,12.33
2018-11-07T11:55:06.691Z,11.17
2018-11-07T11:57:34.466Z,10.00
2018-11-07T12:00:02.573Z,10.83
2018-11-07T12:02:30.084Z,10.63
2018-11-07T12:04:57.852Z,10.00
2018-11-07T12:07:25.587Z,12.00
2018-11-07T12:09:53.543Z,8.73
2018-11-07T12:12:21.351Z,12.67
2018-11-07T12:14:49.120Z,9.27
2018-11-07T12:17:16.899Z,10.40
2018-11-07T12:19:44.651Z,7.47
2018-11-07T12:22:12.413Z,7.20
2018-11-07T12:24:40.192Z,7.70
2018-11-07T12:27:07.976Z,6.60
2018-11-07T12:29:35.727Z,7.43
2018-11-07T12:32:03.753Z,7.87
2018-11-07T12:34:31.491Z,6.83
2018-11-07T12:36:59.642Z,8.70
2018-11-07T12:39:27.346Z,8.83
2018-11-07T12:41:55.183Z,7.60
2018-11-07T12:44:22.888Z,11.37
2018-11-07T12:46:50.613Z,10.33
2018-11-07T12:49:18.451Z,8.83
2018-11-07T12:51:46.180Z,7.20
2018-11-07T12:54:13.970Z,8.63
2018-11-07T12:56:41.796Z,6.97
2018-11-07T12:59:09.515Z,12.20
2018-11-07T13:01:37.266Z,10.17
2018-11-07T13:04:05.179Z,8.57
2018-11-07T13:06:32.931Z,8.80
2018-11-07T13:09:00.667Z,9.47
2018-11-07T13:11:28.489Z,8.97
2018-11-07T13:13:56.196Z,9.87
2018-11-07T13:16:23.956Z,12.40
2018-11-07T13:18:51.751Z,11.73
2018-11-07T13:21:19.479Z,12.33
2018-11-07T13:23:47.256Z,12.40
2018-11-07T13:26:15.092Z,21.13
2018-11-07T13:28:42.903Z,11.40
2018-11-07T13:31:11.109Z,11.33
2018-11-07T13:33:39.978Z,12.90
2018-11-07T13:36:08.364Z,11.43
2018-11-07T13:38:36.887Z,13.33
2018-11-07T13:41:05.630Z,10.53
2018-11-07T13:43:33.922Z,13.97
2018-11-07T13:46:02.219Z,11.27
2018-11-07T13:48:30.678Z,45.60
2018-11-07T13:50:58.763Z,21.70
2018-11-07T13:53:27.059Z,13.80
2018-11-07T13:55:55.319Z,19.40
2018-11-07T13:58:23.623Z,16.83
2018-11-07T14:00:51.903Z,19.50
2018-11-07T14:03:20.056Z,15.33
2018-11-07T14:05:48.493Z,17.40
2018-11-07T14:08:16.160Z,12.80
2018-11-07T14:10:43.932Z,14.10
2018-11-07T14:13:11.727Z,11.50
2018-11-07T14:15:39.517Z,11.13
2018-11-07T14:18:07.321Z,17.30
2018-11-07T14:20:35.161Z,14.03
2018-11-07T14:23:02.896Z,16.97
2018-11-07T14:25:30.667Z,16.10
2018-11-07T14:27:58.569Z,15.60
2018-11-07T14:30:26.298Z,19.17
2018-11-07T14:32:59.224Z,22.17
2018-11-07T14:35:27.095Z,20.07
2018-11-07T14:37:55.498Z,22.47
2018-11-07T14:40:23.398Z,19.73
2018-11-07T14:42:51.151Z,20.23
2018-11-07T14:45:18.882Z,25.47
2018-11-07T14:47:46.762Z,35.27
2018-11-07T14:50:14.684Z,28.50
2018-11-07T14:52:42.872Z,22.47
2018-11-07T14:55:11.567Z,42.83
2018-11-07T14:57:39.379Z,45.73
2018-11-07T15:00:10.559Z,27.40
2018-11-07T15:02:39.007Z,27.20
2018-11-07T15:05:08.224Z,35.27
2018-11-07T15:07:36.087Z,34.53
2018-11-07T15:10:05.011Z,30.57
2018-11-07T15:12:33.479Z,31.73
2018-11-07T15:15:01.724Z,29.43
2018-11-07T15:17:30.079Z,25.50
2018-11-07T15:19:58.195Z,24.47
2018-11-07T15:22:26.581Z,30.70
2018-11-07T15:24:54.957Z,33.17
2018-11-07T15:27:23.331Z,39.03
2018-11-07T15:29:51.462Z,35.03
2018-11-07T15:32:19.557Z,34.90
2018-11-07T15:34:48.044Z,28.20
2018-11-07T15:37:16.327Z,25.57
2018-11-07T15:39:44.788Z,35.33
2018-11-07T15:42:13.259Z,25.83
2018-11-07T15:44:41.444Z,20.83
2018-11-07T15:47:09.387Z,20.93
2018-11-07T15:49:41.208Z,23.03
2018-11-07T15:52:09.595Z,33.30
2018-11-07T15:54:38.107Z,19.77
2018-11-07T15:57:06.339Z,25.40
2018-11-07T15:59:34.867Z,18.27
2018-11-07T16:02:03.143Z,19.73
2018-11-07T16:04:31.575Z,18.67
2018-11-07T16:06:59.746Z,18.40
2018-11-07T16:09:27.726Z,19.60
2018-11-07T16:11:55.992Z,20.73
2018-11-07T16:14:24.582Z,19.97
2018-11-07T16:16:52.999Z,23.23
2018-11-07T16:19:21.288Z,27.07
2018-11-07T16:21:49.452Z,20.70
2018-11-07T16:24:17.791Z,24.00
2018-11-07T16:26:45.905Z,23.13
2018-11-07T16:29:14.367Z,20.10
2018-11-07T16:31:42.467Z,22.33
2018-11-07T16:34:10.685Z,26.10
2018-11-07T16:36:39.029Z,26.03
2018-11-07T16:39:08.915Z,34.87
2018-11-07T16:41:37.641Z,43.50
2018-11-07T16:44:05.675Z,42.73
2018-11-07T16:46:33.435Z,41.73
2018-11-07T16:49:01.782Z,36.57
2018-11-07T16:51:30.035Z,28.13
2018-11-07T16:53:58.352Z,31.87
2018-11-07T16:56:26.587Z,30.77
2018-11-07T16:58:55.095Z,31.57
2018-11-07T17:01:23.143Z,26.60
2018-11-07T17:03:51.418Z,26.83
2018-11-07T17:06:20.073Z,36.83
2018-11-07T17:08:48.433Z,56.17
2018-11-07T17:11:16.752Z,46.30
2018-11-07T17:13:45.218Z,40.07
2018-11-07T17:16:13.389Z,45.90
2018-11-07T17:18:41.472Z,45.87
2018-11-07T17:21:09.844Z,30.13
2018-11-07T17:23:37.910Z,30.20
2018-11-07T17:26:06.316Z,29.17
2018-11-07T17:28:34.596Z,84.23
2018-11-07T17:31:03.136Z,82.13
2018-11-07T17:33:31.376Z,40.07
2018-11-07T17:35:59.876Z,28.77
2018-11-07T17:38:28.261Z,26.37
2018-11-07T17:40:56.393Z,32.53
2018-11-07T17:43:24.900Z,25.10
2018-11-07T17:45:53.164Z,22.00
2018-11-07T17:48:21.801Z,16.37
2018-11-07T17:50:50.135Z,22.13
2018-11-07T17:53:18.819Z,18.57
2018-11-07T17:55:47.063Z,21.33
2018-11-07T17:58:15.575Z,23.13
2018-11-07T18:00:43.811Z,24.47
2018-11-07T18:03:12.306Z,32.70
2018-11-07T18:05:40.623Z,34.80
2018-11-07T18:08:09.103Z,34.67
2018-11-07T18:10:37.340Z,40.37
2018-11-07T18:13:05.860Z,38.33
2018-11-07T18:15:36.420Z,46.13
2018-11-07T18:18:04.829Z,49.73
2018-11-07T18:20:33.335Z,49.37
2018-11-07T18:23:01.571Z,42.27
2018-11-07T18:25:30.095Z,50.53
2018-11-07T18:27:58.431Z,48.00
2018-11-07T18:30:26.588Z,50.97
2018-11-07T18:32:54.971Z,39.13
2018-11-07T18:35:22.960Z,41.80
2018-11-07T18:37:50.583Z,51.57
2018-11-07T18:40:19.567Z,43.97
2018-11-07T18:42:47.395Z,41.90
2018-11-07T18:45:15.560Z,40.13
2018-11-07T18:47:45.096Z,34.67
2018-11-07T18:50:14.443Z,38.25
2018-11-07T18:52:42.614Z,35.80
2018-11-07T18:55:11.709Z,29.07
2018-11-07T18:57:39.622Z,52.27
2018-11-07T19:00:09.875Z,61.60
2018-11-07T19:02:37.660Z,40.40
2018-11-07T19:05:05.932Z,37.67
2018-11-07T19:07:35.304Z,40.50
2018-11-07T19:10:03.199Z,46.53
2018-11-07T19:12:31.007Z,37.33
2018-11-07T19:14:58.829Z,45.70
2018-11-07T19:17:26.571Z,43.70
2018-11-07T19:19:54.392Z,29.07
2018-11-07T19:22:22.121Z,31.83
2018-11-07T19:24:49.899Z,22.50
2018-11-07T19:27:17.803Z,24.07
2018-11-07T19:29:45.619Z,27.03
2018-11-07T19:32:13.791Z,25.57
2018-11-07T19:34:41.647Z,27.33
2018-11-07T19:37:09.470Z,26.13
2018-11-07T19:39:37.625Z,25.27
2018-11-07T19:42:05.502Z,32.00
2018-11-07T19:44:33.306Z,22.57
2018-11-07T19:47:01.120Z,15.17
2018-11-07T19:49:28.948Z,18.57
2018-11-07T19:51:56.823Z,29.17
2018-11-07T19:54:24.795Z,32.33
2018-11-07T19:56:52.727Z,22.87
2018-11-07T19:59:20.564Z,26.17
2018-11-07T20:01:48.928Z,27.47
2018-11-07T20:04:17.175Z,27.50
2018-11-07T20:06:45.335Z,28.70
2018-11-07T20:09:13.212Z,29.73
2018-11-07T20:11:40.999Z,28.57
2018-11-07T20:14:08.748Z,33.43
2018-11-07T20:16:36.599Z,29.30
2018-11-07T20:19:04.474Z,34.13
2018-11-07T20:21:32.280Z,25.90
2018-11-07T20:24:00.222Z,28.57
2018-11-07T20:26:28.110Z,25.63
2018-11-07T20:28:56.013Z,26.83
2018-11-07T20:31:23.843Z,24.33
2018-11-07T20:33:51.621Z,25.10
2018-11-07T20:36:19.432Z,24.20
2018-11-07T20:38:47.503Z,18.10
2018-11-07T20:41:15.635Z,17.47
2018-11-07T20:43:44.121Z,18.67
2018-11-07T20:46:12.378Z,18.07
2018-11-07T20:48:41.170Z,19.17
2018-11-07T20:51:09.143Z,19.03
2018-11-07T20:53:37.716Z,19.50
2018-11-07T20:56:06.129Z,23.93
2018-11-07T20:58:34.478Z,22.47
2018-11-07T21:01:02.899Z,25.07
2018-11-07T21:03:31.154Z,29.67
2018-11-07T21:05:59.639Z,26.23
2018-11-07T21:08:27.903Z,23.47
2018-11-07T21:10:56.388Z,27.67
2018-11-07T21:13:24.447Z,23.60
2018-11-07T21:15:52.908Z,27.50
2018-11-07T21:18:21.183Z,27.03
2018-11-07T21:20:49.659Z,26.93
2018-11-07T21:23:17.951Z,23.17
2018-11-07T21:25:46.452Z,19.93
2018-11-07T21:28:14.666Z,19.77
2018-11-07T21:30:42.979Z,16.97
2018-11-07T21:33:11.279Z,18.53
2018-11-07T21:35:39.732Z,14.80
2018-11-07T21:38:08.019Z,18.77
2018-11-07T21:40:36.503Z,18.63
2018-11-07T21:43:04.809Z,21.40
2018-11-07T21:45:33.242Z,21.53
2018-11-07T21:48:01.016Z,19.13
2018-11-07T21:50:29.160Z,18.27
2018-11-07T21:52:57.416Z,19.13
2018-11-07T21:55:26.055Z,18.37
2018-11-07T21:57:54.374Z,17.27
2018-11-07T22:00:22.519Z,15.33
2018-11-07T22:02:50.373Z,15.60
2018-11-07T22:05:18.576Z,16.73
2018-11-07T22:07:46.360Z,11.90
2018-11-07T22:10:15.464Z,16.60
2018-11-07T22:12:43.220Z,14.20
2018-11-07T22:15:11.003Z,17.57
2018-11-07T22:17:38.853Z,15.40
2018-11-07T22:20:08.967Z,18.70
2018-11-07T22:22:37.140Z,16.10
2018-11-07T22:25:05.491Z,16.37
2018-11-07T22:27:33.752Z,16.33
2018-11-07T22:30:02.320Z,18.83
2018-11-07T22:32:30.508Z,15.00
2018-11-07T22:34:58.939Z,16.10
2018-11-07T22:37:27.095Z,14.40
2018-11-07T22:39:55.508Z,15.03
2018-11-07T22:42:23.811Z,16.03
2018-11-07T22:44:52.265Z,17.77
2018-11-07T22:47:20.584Z,18.07
2018-11-07T22:49:48.867Z,16.60
2018-11-07T22:52:17.098Z,13.43
2018-11-07T22:54:45.401Z,15.90
2018-11-07T22:57:13.876Z,13.97
2018-11-07T22:59:42.125Z,16.40
2018-11-07T23:02:10.668Z,12.57
2018-11-07T23:04:38.816Z,15.83
2018-11-07T23:07:07.170Z,12.00
2018-11-07T23:09:34.908Z,12.87
2018-11-07T23:12:03.325Z,12.93
2018-11-07T23:14:31.548Z,11.93
2018-11-07T23:16:59.699Z,13.90
2018-11-07T23:19:28.260Z,14.07
2018-11-07T23:21:56.416Z,15.87
2018-11-07T23:24:24.884Z,14.50
2018-11-07T23:26:53.176Z,13.00
2018-11-07T23:29:21.673Z,11.87
2018-11-07T23:31:49.989Z,13.30
2018-11-07T23:34:18.396Z,13.47
2018-11-07T23:36:46.655Z,13.43
2018-11-07T23:39:14.799Z,14.90
2018-11-07T23:41:43.219Z,10.60
2018-11-07T23:44:11.492Z,11.80
2018-11-07T23:46:39.996Z,13.43
2018-11-07T23:49:08.250Z,14.53
2018-11-07T23:51:41.295Z,14.63
2018-11-07T23:54:09.607Z,12.73
2018-11-07T23:56:37.806Z,17.27
2018-11-07T23:59:06.266Z,16.33
